createdAt,value
2024-04-09T00:01:21.865Z,87.49
2024-04-09T00:03:48.845Z,89.40
2024-04-09T00:06:16.318Z,89.98
2024-04-09T00:08:45.991Z,90.00
2024-04-09T00:11:23.114Z,89.82
2024-04-09T00:13:52.420Z,90.30
2024-04-09T00:16:29.741Z,90.27
2024-04-09T00:18:59.140Z,90.82
2024-04-09T00:21:27.378Z,91.10
2024-04-09T00:23:58.144Z,91.75
2024-04-09T00:26:25.322Z,91.49
2024-04-09T00:28:52.671Z,91.63
2024-04-09T00:31:19.314Z,91.67
2024-04-09T00:33:47.300Z,91.79
2024-04-09T00:36:14.340Z,91.62
2024-04-09T00:38:42.082Z,91.67
2024-04-09T00:41:11.540Z,92.26
2024-04-09T00:43:38.571Z,91.03
2024-04-09T00:46:08.937Z,90.56
2024-04-09T00:48:35.810Z,90.62
2024-04-09T00:51:05.653Z,89.90
2024-04-09T00:53:33.940Z,90.87
2024-04-09T00:56:02.388Z,91.20
2024-04-09T00:58:29.896Z,90.81
2024-04-09T01:00:58.164Z,91.38
2024-04-09T01:03:26.223Z,91.93
2024-04-09T01:05:53.904Z,91.92
2024-04-09T01:08:20.570Z,92.02
2024-04-09T01:10:47.312Z,92.58
2024-04-09T01:13:13.944Z,92.52
2024-04-09T01:15:40.726Z,92.83
2024-04-09T01:18:08.001Z,93.09
2024-04-09T01:20:34.680Z,93.31
2024-04-09T01:23:01.994Z,92.99
2024-04-09T01:25:28.679Z,92.90
2024-04-09T01:27:55.628Z,92.74
2024-04-09T01:30:22.932Z,92.57
2024-04-09T01:32:50.502Z,92.22
2024-04-09T01:35:17.883Z,92.67
2024-04-09T01:37:44.511Z,92.01
2024-04-09T01:40:12.051Z,92.10
2024-04-09T01:42:38.871Z,91.61
2024-04-09T01:45:06.259Z,91.95
2024-04-09T01:47:33.931Z,91.90
2024-04-09T01:50:00.878Z,91.96
2024-04-09T01:52:27.547Z,91.94
2024-04-09T01:54:54.463Z,92.12
2024-04-09T01:57:21.242Z,92.34
2024-04-09T01:59:48.321Z,92.50
2024-04-09T02:02:17.643Z,92.53
2024-04-09T02:04:45.449Z,92.21
2024-04-09T02:07:12.841Z,92.60
2024-04-09T02:09:39.487Z,92.70
2024-04-09T02:12:06.971Z,92.68
2024-04-09T02:14:33.610Z,93.03
2024-04-09T02:17:00.214Z,93.14
2024-04-09T02:19:26.975Z,93.01
2024-04-09T02:21:53.575Z,93.32
2024-04-09T02:24:20.258Z,93.86
2024-04-09T02:26:48.338Z,93.66
2024-04-09T02:29:16.154Z,93.38
2024-04-09T02:31:44.973Z,93.78
2024-04-09T02:34:11.626Z,94.28
2024-04-09T02:36:38.327Z,94.20
2024-04-09T02:39:07.102Z,95.02
2024-04-09T02:41:33.783Z,95.17
2024-04-09T02:44:00.383Z,94.97
2024-04-09T02:46:27.011Z,95.95
2024-04-09T02:48:53.730Z,95.94
2024-04-09T02:51:22.756Z,95.82
2024-04-09T02:53:49.416Z,95.87
2024-04-09T02:56:16.013Z,96.49
2024-04-09T02:58:42.765Z,96.30
2024-04-09T03:01:11.230Z,96.58
2024-04-09T03:03:39.357Z,96.09
2024-04-09T03:06:13.031Z,95.28
2024-04-09T03:08:44.029Z,95.81
2024-04-09T03:11:19.071Z,94.60
2024-04-09T03:13:47.319Z,93.04
2024-04-09T03:16:21.838Z,92.51
2024-04-09T03:18:51.713Z,91.31
2024-04-09T03:21:18.651Z,89.54
2024-04-09T03:23:45.494Z,88.82
2024-04-09T03:26:13.465Z,87.84
2024-04-09T03:28:40.473Z,88.31
2024-04-09T03:31:07.569Z,87.30
2024-04-09T03:33:35.090Z,87.94
2024-04-09T03:36:05.161Z,87.90
2024-04-09T03:38:31.931Z,86.93
2024-04-09T03:41:03.615Z,86.78
2024-04-09T03:43:30.669Z,87.33
2024-04-09T03:46:07.702Z,87.77
2024-04-09T03:48:39.436Z,87.10
2024-04-09T03:51:07.184Z,87.78
2024-04-09T03:53:34.289Z,87.19
2024-04-09T03:56:03.275Z,87.26
2024-04-09T03:58:38.207Z,87.92
2024-04-09T04:01:08.545Z,88.02
2024-04-09T04:03:37.829Z,88.52
2024-04-09T04:06:04.752Z,88.65
2024-04-09T04:08:33.891Z,88.65
2024-04-09T04:11:05.880Z,88.96
2024-04-09T04:13:34.006Z,88.81
2024-04-09T04:16:07.139Z,89.13
2024-04-09T04:18:38.421Z,89.41
2024-04-09T04:21:09.962Z,89.53
2024-04-09T04:23:38.590Z,89.78
2024-04-09T04:26:08.027Z,89.53
2024-04-09T04:28:36.509Z,89.76
2024-04-09T04:31:10.257Z,90.16
2024-04-09T04:33:38.264Z,89.87
2024-04-09T04:36:10.343Z,90.26
2024-04-09T04:38:38.334Z,90.07
2024-04-09T04:41:06.790Z,90.71
2024-04-09T04:43:34.493Z,90.43
2024-04-09T04:46:01.912Z,90.43
2024-04-09T04:48:29.074Z,90.50
2024-04-09T04:50:55.870Z,90.51
2024-04-09T04:53:22.761Z,90.76
2024-04-09T04:55:52.705Z,90.65
2024-04-09T04:58:22.764Z,89.92
2024-04-09T05:00:50.527Z,90.22
2024-04-09T05:03:17.535Z,89.41
2024-04-09T05:05:44.281Z,88.16
2024-04-09T05:08:10.887Z,87.28
2024-04-09T05:10:40.658Z,87.09
2024-04-09T05:13:08.081Z,86.28
2024-04-09T05:15:34.911Z,87.04
2024-04-09T05:18:03.014Z,86.63
2024-04-09T05:20:30.808Z,86.35
2024-04-09T05:22:58.612Z,87.53
2024-04-09T05:25:28.914Z,86.80
2024-04-09T05:27:58.347Z,87.31
2024-04-09T05:30:25.077Z,87.79
2024-04-09T05:32:51.940Z,88.69
2024-04-09T05:35:20.848Z,88.95
2024-04-09T05:37:47.597Z,89.61
2024-04-09T05:40:14.292Z,89.49
2024-04-09T05:42:47.257Z,90.64
2024-04-09T05:45:17.344Z,91.00
2024-04-09T05:47:44.269Z,91.63
2024-04-09T05:50:11.577Z,92.04
2024-04-09T05:52:38.347Z,91.78
2024-04-09T05:55:06.735Z,91.95
2024-04-09T05:57:38.727Z,92.35
2024-04-09T06:00:12.962Z,91.37
2024-04-09T06:02:42.334Z,91.34
2024-04-09T06:05:08.969Z,91.86
2024-04-09T06:07:35.586Z,91.73
2024-04-09T06:10:04.559Z,92.04
2024-04-09T06:12:31.243Z,91.90
2024-04-09T06:14:57.982Z,91.20
2024-04-09T06:17:24.834Z,92.29
2024-04-09T06:19:53.594Z,91.58
2024-04-09T06:22:20.725Z,91.05
2024-04-09T06:24:49.516Z,91.90
2024-04-09T06:27:16.278Z,91.42
2024-04-09T06:29:43.425Z,90.37
2024-04-09T06:32:10.867Z,90.80
2024-04-09T06:34:37.556Z,90.70
2024-04-09T06:37:04.859Z,90.57
2024-04-09T06:39:31.546Z,90.78
2024-04-09T06:42:00.970Z,90.31
2024-04-09T06:44:27.584Z,89.80
2024-04-09T06:46:54.230Z,90.01
2024-04-09T06:49:21.125Z,89.41
2024-04-09T06:51:47.828Z,90.04
2024-04-09T06:54:15.751Z,89.36
2024-04-09T06:56:42.984Z,89.86
2024-04-09T06:59:09.639Z,90.34
2024-04-09T07:01:36.488Z,89.69
2024-04-09T07:04:05.790Z,89.76
2024-04-09T07:06:32.905Z,89.92
2024-04-09T07:09:03.564Z,89.45
2024-04-09T07:11:30.421Z,88.16
2024-04-09T07:13:57.751Z,88.56
2024-04-09T07:16:24.670Z,86.89
2024-04-09T07:18:51.411Z,85.36
2024-04-09T07:21:19.305Z,81.93
2024-04-09T07:23:47.407Z,78.82
2024-04-09T07:26:14.929Z,77.71
2024-04-09T07:28:41.588Z,75.83
2024-04-09T07:31:09.670Z,75.60
2024-04-09T07:33:36.544Z,74.87
2024-04-09T07:36:04.581Z,74.15
2024-04-09T07:38:31.588Z,73.48
2024-04-09T07:40:58.316Z,72.73
2024-04-09T07:43:25.170Z,72.04
2024-04-09T07:45:55.272Z,72.76
2024-04-09T07:48:22.828Z,70.80
2024-04-09T07:50:49.622Z,72.11
2024-04-09T07:53:19.670Z,70.44
2024-04-09T07:55:46.594Z,67.78
2024-04-09T07:58:13.540Z,66.00
2024-04-09T08:00:40.863Z,65.51
2024-04-09T08:03:08.315Z,64.66
2024-04-09T08:05:37.317Z,64.13
2024-04-09T08:08:05.475Z,65.72
2024-04-09T08:10:32.982Z,64.02
2024-04-09T08:13:01.385Z,64.38
2024-04-09T08:15:28.653Z,64.91
2024-04-09T08:17:55.564Z,64.18
2024-04-09T08:20:22.299Z,64.04
2024-04-09T08:22:53.242Z,63.86
2024-04-09T08:25:21.138Z,63.21
2024-04-09T08:27:48.681Z,63.91
2024-04-09T08:30:18.958Z,64.01
2024-04-09T08:32:51.364Z,63.26
2024-04-09T08:35:18.426Z,64.14
2024-04-09T08:37:46.414Z,63.53
2024-04-09T08:40:15.105Z,62.73
2024-04-09T08:42:46.003Z,62.71
2024-04-09T08:45:16.966Z,63.05
2024-04-09T08:47:45.396Z,62.63
2024-04-09T08:50:14.626Z,62.97
2024-04-09T08:52:42.224Z,62.06
2024-04-09T08:55:09.554Z,62.91
2024-04-09T08:57:38.328Z,62.54
2024-04-09T09:00:05.681Z,62.22
2024-04-09T09:02:32.381Z,62.13
2024-04-09T09:04:58.992Z,61.48
2024-04-09T09:07:26.034Z,61.27
2024-04-09T09:10:07.734Z,62.06
2024-04-09T09:12:34.582Z,61.73
2024-04-09T09:15:02.756Z,62.59
2024-04-09T09:17:32.719Z,62.48
2024-04-09T09:20:15.443Z,62.67
2024-04-09T09:22:47.120Z,61.95
2024-04-09T09:25:24.077Z,61.33
2024-04-09T09:28:02.901Z,60.67
2024-04-09T09:30:46.902Z,60.39
2024-04-09T09:33:31.016Z,61.13
2024-04-09T09:35:58.310Z,60.44
2024-04-09T09:38:30.543Z,59.98
2024-04-09T09:40:58.509Z,59.67
2024-04-09T09:43:26.991Z,59.76
2024-04-09T09:45:55.274Z,58.76
2024-04-09T09:48:24.543Z,58.57
2024-04-09T09:50:51.514Z,59.25
2024-04-09T09:53:19.889Z,59.09
2024-04-09T09:55:50.533Z,59.11
2024-04-09T09:58:22.106Z,58.74
2024-04-09T10:00:50.917Z,57.41
2024-04-09T10:03:18.224Z,57.07
2024-04-09T10:05:46.237Z,56.91
2024-04-09T10:08:27.178Z,56.77
2024-04-09T10:10:53.795Z,56.66
2024-04-09T10:13:22.691Z,56.46
2024-04-09T10:15:49.912Z,55.30
2024-04-09T10:18:35.615Z,55.80
2024-04-09T10:21:04.351Z,55.81
2024-04-09T10:23:38.745Z,55.70
2024-04-09T10:26:07.045Z,55.35
2024-04-09T10:28:36.833Z,54.82
2024-04-09T10:31:09.647Z,55.96
2024-04-09T10:33:38.625Z,56.11
2024-04-09T10:36:10.305Z,55.87
2024-04-09T10:38:43.183Z,56.19
2024-04-09T10:41:10.567Z,54.89
2024-04-09T10:43:37.236Z,55.48
2024-04-09T10:46:11.038Z,56.04
2024-04-09T10:48:42.122Z,55.21
2024-04-09T10:51:09.845Z,54.89
2024-04-09T10:53:36.735Z,55.27
2024-04-09T10:56:03.754Z,55.14
2024-04-09T10:58:30.491Z,56.20
2024-04-09T11:00:57.621Z,55.48
2024-04-09T11:03:25.108Z,55.28
2024-04-09T11:05:52.595Z,55.77
2024-04-09T11:08:31.515Z,55.94
2024-04-09T11:11:02.919Z,55.84
2024-04-09T11:13:31.147Z,55.74
2024-04-09T11:15:58.536Z,55.46
2024-04-09T11:18:26.484Z,55.74
2024-04-09T11:20:55.253Z,56.38
2024-04-09T11:23:26.235Z,56.47
2024-04-09T11:25:54.196Z,56.10
2024-04-09T11:28:22.976Z,56.77
2024-04-09T11:30:53.513Z,56.75
2024-04-09T11:33:20.707Z,55.90
2024-04-09T11:35:53.290Z,56.36
2024-04-09T11:38:21.000Z,57.44
2024-04-09T11:40:47.881Z,56.65
2024-04-09T11:43:14.813Z,56.74
2024-04-09T11:45:42.321Z,56.86
2024-04-09T11:48:10.912Z,57.01
2024-04-09T11:50:37.867Z,56.78
2024-04-09T11:53:06.745Z,57.93
2024-04-09T11:55:33.436Z,56.82
2024-04-09T11:58:00.244Z,57.27
2024-04-09T12:00:27.173Z,57.23
2024-04-09T12:02:54.055Z,57.56
2024-04-09T12:05:20.754Z,57.20
2024-04-09T12:07:47.479Z,56.83
2024-04-09T12:10:14.618Z,56.74
2024-04-09T12:12:42.017Z,57.11
2024-04-09T12:15:09.300Z,56.51
2024-04-09T12:17:36.415Z,56.26
2024-04-09T12:20:04.189Z,56.63
2024-04-09T12:22:31.722Z,56.46
2024-04-09T12:24:58.522Z,57.22
2024-04-09T12:27:25.710Z,56.30
2024-04-09T12:29:52.429Z,56.40
2024-04-09T12:32:19.329Z,56.64
2024-04-09T12:34:47.287Z,56.65
2024-04-09T12:37:14.161Z,55.78
2024-04-09T12:39:40.937Z,56.00
2024-04-09T12:42:09.202Z,56.33
2024-04-09T12:44:36.874Z,56.31
2024-04-09T12:47:04.507Z,56.26
2024-04-09T12:49:41.608Z,56.63
2024-04-09T12:52:12.719Z,56.65
2024-04-09T12:54:39.531Z,57.10
2024-04-09T12:57:06.328Z,56.53
2024-04-09T13:02:12.781Z,56.40
2024-04-09T13:04:39.768Z,56.06
2024-04-09T13:07:06.835Z,56.52
2024-04-09T13:09:33.569Z,56.71
2024-04-09T13:12:00.348Z,56.14
2024-04-09T13:14:27.546Z,55.92
2024-04-09T13:16:56.636Z,56.40
2024-04-09T13:19:25.649Z,56.70
2024-04-09T13:21:52.407Z,57.11
2024-04-09T13:24:19.035Z,56.96
2024-04-09T13:26:45.634Z,56.93
2024-04-09T13:29:12.337Z,57.27
2024-04-09T13:31:38.985Z,56.83
2024-04-09T13:34:07.176Z,56.62
2024-04-09T13:36:33.943Z,56.09
2024-04-09T13:39:00.769Z,55.89
2024-04-09T13:41:27.701Z,55.33
2024-04-09T13:43:55.356Z,55.92
2024-04-09T13:46:28.435Z,55.11
2024-04-09T13:48:56.276Z,54.70
2024-04-09T13:51:23.077Z,54.84
2024-04-09T13:53:49.773Z,55.21
2024-04-09T13:56:17.057Z,54.89
2024-04-09T13:58:44.156Z,54.28
2024-04-09T14:01:10.871Z,53.88
2024-04-09T14:03:37.565Z,53.76
2024-04-09T14:06:04.587Z,54.13
2024-04-09T14:08:31.591Z,54.49
2024-04-09T14:10:58.485Z,54.61
2024-04-09T14:13:29.634Z,54.03
2024-04-09T14:15:56.668Z,54.26
2024-04-09T14:18:27.828Z,54.73
2024-04-09T14:20:57.744Z,54.19
2024-04-09T14:23:25.183Z,54.74
2024-04-09T14:25:51.964Z,54.67
2024-04-09T14:28:18.837Z,55.49
2024-04-09T14:30:46.263Z,55.48
2024-04-09T14:33:13.621Z,55.57
2024-04-09T14:35:43.484Z,55.78
2024-04-09T14:38:10.767Z,56.91
2024-04-09T14:40:37.503Z,57.91
2024-04-09T14:43:05.001Z,59.57
2024-04-09T14:45:31.847Z,61.94
2024-04-09T14:47:58.911Z,65.19
2024-04-09T14:50:25.888Z,68.09
2024-04-09T14:52:52.730Z,69.05
2024-04-09T14:55:19.455Z,69.97
2024-04-09T14:57:46.330Z,70.28
2024-04-09T15:00:13.690Z,70.08
2024-04-09T15:02:40.531Z,68.98
2024-04-09T15:05:07.414Z,69.21
2024-04-09T15:07:35.549Z,69.68
2024-04-09T15:10:02.453Z,69.63
2024-04-09T15:12:29.148Z,70.32
2024-04-09T15:14:56.387Z,71.46
2024-04-09T15:17:25.704Z,74.75
2024-04-09T15:19:55.256Z,75.48
2024-04-09T15:22:22.218Z,76.11
2024-04-09T15:24:49.525Z,78.72
2024-04-09T15:27:16.186Z,79.21
2024-04-09T15:29:42.938Z,78.79
2024-04-09T15:32:11.177Z,77.62
2024-04-09T15:34:38.096Z,77.02
2024-04-09T15:37:04.755Z,77.91
2024-04-09T15:39:31.479Z,78.67
2024-04-09T15:41:58.147Z,78.97
2024-04-09T15:44:24.862Z,78.51
2024-04-09T15:46:51.614Z,78.50
2024-04-09T15:49:18.426Z,80.03
2024-04-09T15:51:45.121Z,77.85
2024-04-09T15:54:12.047Z,74.84
2024-04-09T15:56:38.655Z,72.59
2024-04-09T15:59:05.725Z,71.88
2024-04-09T16:01:35.900Z,70.96
2024-04-09T16:04:02.538Z,70.82
2024-04-09T16:06:30.728Z,71.00
2024-04-09T16:08:57.345Z,69.32
2024-04-09T16:11:26.967Z,69.56
2024-04-09T16:13:53.684Z,69.62
2024-04-09T16:16:20.353Z,69.35
2024-04-09T16:18:47.903Z,69.65
2024-04-09T16:21:14.725Z,69.75
2024-04-09T16:23:41.705Z,70.33
2024-04-09T16:26:11.296Z,71.35
2024-04-09T16:28:38.346Z,71.86
2024-04-09T16:31:05.187Z,72.30
2024-04-09T16:33:32.874Z,73.95
2024-04-09T16:35:59.652Z,71.78
2024-04-09T16:38:28.854Z,72.86
2024-04-09T16:40:57.513Z,72.12
2024-04-09T16:43:24.160Z,73.92
2024-04-09T16:45:50.803Z,72.60
2024-04-09T16:48:17.560Z,72.61
2024-04-09T16:50:46.668Z,72.04
2024-04-09T16:53:13.764Z,72.75
2024-04-09T16:55:40.818Z,73.00
2024-04-09T16:58:08.628Z,72.48
2024-04-09T17:00:36.705Z,71.74
2024-04-09T17:03:04.166Z,70.90
2024-04-09T17:05:30.961Z,70.87
2024-04-09T17:07:58.726Z,71.67
2024-04-09T17:10:25.526Z,72.20
2024-04-09T17:12:52.339Z,71.68
2024-04-09T17:15:20.028Z,72.87
2024-04-09T17:17:47.191Z,72.64
2024-04-09T17:20:14.330Z,74.81
2024-04-09T17:22:41.099Z,74.95
2024-04-09T17:25:07.790Z,75.27
2024-04-09T17:27:34.493Z,75.81
2024-04-09T17:30:01.284Z,76.07
2024-04-09T17:32:32.213Z,75.04
2024-04-09T17:35:00.903Z,76.38
2024-04-09T17:37:27.926Z,75.46
2024-04-09T17:39:54.626Z,74.80
2024-04-09T17:42:21.346Z,75.92
2024-04-09T17:44:48.001Z,76.61
2024-04-09T17:47:14.709Z,76.55
2024-04-09T17:49:41.660Z,75.73
2024-04-09T17:52:08.602Z,76.42
2024-04-09T17:54:35.539Z,76.75
2024-04-09T17:57:02.668Z,77.34
2024-04-09T17:59:29.622Z,76.97
2024-04-09T18:01:56.307Z,77.18
2024-04-09T18:04:26.899Z,78.42
2024-04-09T18:06:53.787Z,79.05
2024-04-09T18:09:20.427Z,79.21
2024-04-09T18:11:47.787Z,78.20
2024-04-09T18:14:14.741Z,78.41
2024-04-09T18:16:41.505Z,77.05
2024-04-09T18:19:08.431Z,77.07
2024-04-09T18:21:35.407Z,76.93
2024-04-09T18:24:02.160Z,77.90
2024-04-09T18:26:28.975Z,77.48
2024-04-09T18:28:55.883Z,77.68
2024-04-09T18:31:22.642Z,78.60
2024-04-09T18:33:49.998Z,78.20
2024-04-09T18:36:16.866Z,79.15
2024-04-09T18:38:43.569Z,79.00
2024-04-09T18:41:11.563Z,80.36
2024-04-09T18:43:38.619Z,80.64
2024-04-09T18:46:05.540Z,80.72
2024-04-09T18:48:33.109Z,81.32
2024-04-09T18:51:00.049Z,80.69
2024-04-09T18:53:26.831Z,79.83
2024-04-09T18:55:53.612Z,79.87
2024-04-09T18:58:20.254Z,79.99
2024-04-09T19:00:47.094Z,79.17
2024-04-09T19:03:13.930Z,78.87
2024-04-09T19:05:42.305Z,78.60
2024-04-09T19:08:09.928Z,78.06
2024-04-09T19:10:41.782Z,77.68
2024-04-09T19:13:08.667Z,78.11
2024-04-09T19:15:35.869Z,77.67
2024-04-09T19:18:02.868Z,78.14
2024-04-09T19:20:29.720Z,77.39
2024-04-09T19:22:58.030Z,77.63
2024-04-09T19:25:25.022Z,78.08
2024-04-09T19:27:51.631Z,76.66
2024-04-09T19:30:19.057Z,76.94
2024-04-09T19:32:45.838Z,76.76
2024-04-09T19:35:12.706Z,76.19
2024-04-09T19:37:42.649Z,75.98
2024-04-09T19:40:10.339Z,76.11
2024-04-09T19:42:37.142Z,76.52
2024-04-09T19:45:04.561Z,76.59
2024-04-09T19:47:31.587Z,75.67
2024-04-09T19:49:59.848Z,75.84
2024-04-09T19:52:26.798Z,75.75
2024-04-09T19:54:53.605Z,75.93
2024-04-09T19:57:20.266Z,75.42
2024-04-09T19:59:46.940Z,74.96
2024-04-09T20:02:13.654Z,74.64
2024-04-09T20:04:40.428Z,74.58
2024-04-09T20:07:07.182Z,74.62
2024-04-09T20:09:33.943Z,74.10
2024-04-09T20:12:01.023Z,74.44
2024-04-09T20:14:28.266Z,74.45
2024-04-09T20:16:55.149Z,73.94
2024-04-09T20:19:22.066Z,74.16
2024-04-09T20:21:51.534Z,73.91
2024-04-09T20:24:18.251Z,74.12
2024-04-09T20:26:49.750Z,74.50
2024-04-09T20:29:16.410Z,74.05
2024-04-09T20:31:43.198Z,73.86
2024-04-09T20:34:10.914Z,73.35
2024-04-09T20:36:38.187Z,72.89
2024-04-09T20:39:05.328Z,72.01
2024-04-09T20:41:35.835Z,71.31
2024-04-09T20:44:03.066Z,70.03
2024-04-09T20:46:30.291Z,69.28
2024-04-09T20:48:57.308Z,68.47
2024-04-09T20:51:25.110Z,67.17
2024-04-09T20:53:51.932Z,66.88
2024-04-09T20:56:18.724Z,67.01
2024-04-09T20:58:45.441Z,67.24
2024-04-09T21:01:12.236Z,67.12
2024-04-09T21:03:39.549Z,67.59
2024-04-09T21:06:06.604Z,67.13
2024-04-09T21:08:33.346Z,66.92
2024-04-09T21:11:00.364Z,66.99
2024-04-09T21:13:27.280Z,67.37
2024-04-09T21:15:54.180Z,67.60
2024-04-09T21:18:21.048Z,68.06
2024-04-09T21:20:47.797Z,68.22
2024-04-09T21:23:14.566Z,68.24
2024-04-09T21:25:43.256Z,68.80
2024-04-09T21:28:09.963Z,69.51
2024-04-09T21:30:36.614Z,69.36
2024-04-09T21:33:04.648Z,69.64
2024-04-09T21:35:33.021Z,70.59
2024-04-09T21:37:59.829Z,70.13
2024-04-09T21:40:26.690Z,70.85
2024-04-09T21:42:53.489Z,70.58
2024-04-09T21:45:20.845Z,70.81
2024-04-09T21:47:47.687Z,70.14
2024-04-09T21:50:14.625Z,70.55
2024-04-09T21:52:41.359Z,70.78
2024-04-09T21:55:08.281Z,70.93
2024-04-09T21:57:34.901Z,71.70
2024-04-09T22:00:01.538Z,71.10
2024-04-09T22:02:28.322Z,70.98
2024-04-09T22:04:55.310Z,71.49
2024-04-09T22:07:22.038Z,72.34
2024-04-09T22:09:50.749Z,72.25
2024-04-09T22:12:17.510Z,72.12
2024-04-09T22:14:44.287Z,72.71
2024-04-09T22:17:11.078Z,72.90
2024-04-09T22:19:37.812Z,73.56
2024-04-09T22:22:04.419Z,73.22
2024-04-09T22:24:31.033Z,73.39
2024-04-09T22:26:57.694Z,72.98
2024-04-09T22:29:24.403Z,73.50
2024-04-09T22:31:51.139Z,73.84
2024-04-09T22:34:17.864Z,72.95
2024-04-09T22:36:44.550Z,73.25
2024-04-09T22:39:11.214Z,72.52
2024-04-09T22:41:38.118Z,72.18
2024-04-09T22:44:04.965Z,71.16
2024-04-09T22:46:31.706Z,70.15
2024-04-09T22:48:58.652Z,70.28
2024-04-09T22:51:25.464Z,69.70
2024-04-09T22:53:55.155Z,69.31
2024-04-09T22:56:21.865Z,68.76
2024-04-09T22:58:48.636Z,68.48
2024-04-09T23:01:15.491Z,67.97
2024-04-09T23:03:42.452Z,68.28
2024-04-09T23:06:09.854Z,67.14
2024-04-09T23:08:37.451Z,67.01
2024-04-09T23:11:05.904Z,66.85
2024-04-09T23:13:34.097Z,67.25
2024-04-09T23:16:02.609Z,67.00
2024-04-09T23:18:29.820Z,67.06
2024-04-09T23:20:58.024Z,66.90
2024-04-09T23:23:25.681Z,67.36
2024-04-09T23:25:53.017Z,67.17
2024-04-09T23:28:19.705Z,67.42
2024-04-09T23:30:46.334Z,67.02
2024-04-09T23:33:13.077Z,66.82
2024-04-09T23:35:40.192Z,67.11
2024-04-09T23:38:07.876Z,67.64
2024-04-09T23:40:42.270Z,67.74
2024-04-09T23:43:11.179Z,67.70
2024-04-09T23:45:38.148Z,71.48
2024-04-09T23:48:06.259Z,73.89
2024-04-09T23:50:33.538Z,73.93
2024-04-09T23:53:00.410Z,75.84
2024-04-09T23:55:27.266Z,77.12
2024-04-09T23:57:53.957Z,77.85
